Solon, Iowa
Current Conditions -  °F | °C
As of 3:42 AM on Monday 24 Nov 2014 (Local Time) from KCID Reporting Station
Light Snow Light Snow  
Wind Chill: 19°   Ceiling: 1600
Heat Index: 32°   Visibility: 7mi
Dew Point: 30°   Wind: 22mph
Humidity: 92%   Direction: 310°NW
Pressure: 29.25"   Gusts: 36mph
Location:  41.81°N, 91.49°W
Report Text: KCID 240942Z AUTO 31019G31KT 7SM -SN OVC016 00/M01 A2925 RMK AO2 PK WND 31034/0929 UPB02E15SNB41 P0000 T00001011
Loading
Personal Weather Stations






























Interactive Weather Map New forecast layout! Learn more

10-Day Weather Forecast

Advertisements
Track Severe Weather on mobile